createdAt,value
2022-10-17T00:01:05.994Z,2.00
2022-10-17T00:03:34.600Z,1.65
2022-10-17T00:06:10.593Z,1.63
2022-10-17T00:08:40.979Z,1.65
2022-10-17T00:11:14.041Z,1.60
2022-10-17T00:13:41.519Z,1.60
2022-10-17T00:16:09.545Z,1.52
2022-10-17T00:18:36.994Z,1.60
2022-10-17T00:21:04.862Z,1.55
2022-10-17T00:23:33.552Z,1.98
2022-10-17T00:26:05.933Z,1.70
2022-10-17T00:28:33.916Z,1.67
2022-10-17T00:31:05.285Z,1.60
2022-10-17T00:33:35.714Z,1.80
2022-10-17T00:36:16.216Z,1.50
2022-10-17T00:38:45.737Z,1.45
2022-10-17T00:41:15.652Z,1.88
2022-10-17T00:44:04.034Z,2.35
2022-10-17T00:46:39.475Z,1.52
2022-10-17T00:49:11.633Z,2.10
2022-10-17T00:51:43.492Z,1.80
2022-10-17T00:54:13.541Z,2.00
2022-10-17T00:56:41.229Z,1.70
2022-10-17T00:59:14.014Z,1.73
2022-10-17T01:01:43.697Z,1.77
2022-10-17T01:04:11.230Z,1.77
2022-10-17T01:06:40.067Z,1.67
2022-10-17T01:09:07.632Z,1.95
2022-10-17T01:11:44.894Z,2.20
2022-10-17T01:14:32.727Z,1.90
2022-10-17T01:17:21.109Z,2.17
2022-10-17T01:20:26.066Z,2.00
2022-10-17T01:23:08.417Z,1.45
2022-10-17T01:26:00.354Z,1.93
2022-10-17T01:28:59.959Z,1.70
2022-10-17T01:31:54.182Z,2.00
2022-10-17T01:34:40.971Z,2.00
2022-10-17T01:37:26.446Z,1.45
2022-10-17T01:40:06.397Z,1.85
2022-10-17T01:42:49.053Z,1.98
2022-10-17T01:45:48.682Z,1.87
2022-10-17T01:48:30.383Z,2.00
2022-10-17T01:51:09.839Z,1.85
2022-10-17T01:53:46.880Z,1.80
2022-10-17T01:56:16.519Z,1.80
2022-10-17T01:58:52.271Z,1.85
2022-10-17T02:01:21.720Z,1.55
2022-10-17T02:03:51.512Z,1.60
2022-10-17T02:06:19.017Z,2.13
2022-10-17T02:08:47.802Z,1.80
2022-10-17T02:11:18.442Z,2.00
2022-10-17T02:13:56.383Z,1.70
2022-10-17T02:16:29.880Z,1.70
2022-10-17T02:19:20.753Z,2.00
2022-10-17T02:22:14.642Z,1.70
2022-10-17T02:24:47.734Z,1.77
2022-10-17T02:29:52.549Z,1.85
2022-10-17T02:32:46.587Z,1.92
2022-10-17T02:35:20.012Z,1.80
2022-10-17T02:37:49.095Z,1.83
2022-10-17T02:40:19.280Z,1.60
2022-10-17T02:42:47.296Z,2.10
2022-10-17T02:45:16.042Z,2.10
2022-10-17T02:48:14.361Z,2.20
2022-10-17T02:51:19.189Z,2.20
2022-10-17T02:54:05.538Z,1.98
2022-10-17T02:56:40.091Z,2.20
2022-10-17T02:59:10.551Z,2.08
2022-10-17T03:01:38.492Z,2.08
2022-10-17T03:04:12.240Z,1.92
2022-10-17T03:06:41.143Z,2.08
2022-10-17T03:09:09.102Z,1.80
2022-10-17T03:11:36.629Z,2.05
2022-10-17T03:14:04.557Z,2.17
2022-10-17T03:16:32.648Z,1.70
2022-10-17T03:19:00.144Z,1.88
2022-10-17T03:21:28.009Z,1.95
2022-10-17T03:23:57.224Z,1.95
2022-10-17T03:26:24.959Z,2.75
2022-10-17T03:28:54.499Z,3.78
2022-10-17T03:31:23.756Z,3.05
2022-10-17T03:33:52.755Z,2.20
2022-10-17T03:36:20.966Z,2.35
2022-10-17T03:38:48.797Z,2.40
2022-10-17T03:41:17.669Z,1.73
2022-10-17T03:43:45.321Z,1.90
2022-10-17T03:46:13.074Z,2.60
2022-10-17T03:48:40.700Z,3.05
2022-10-17T03:51:09.960Z,2.40
2022-10-17T03:53:43.748Z,3.05
2022-10-17T03:56:18.088Z,2.20
2022-10-17T03:58:52.054Z,2.58
2022-10-17T04:01:19.805Z,2.03
2022-10-17T04:03:55.298Z,3.83
2022-10-17T04:06:23.290Z,2.00
2022-10-17T04:08:50.817Z,2.80
2022-10-17T04:11:24.460Z,1.85
2022-10-17T04:13:55.419Z,1.90
2022-10-17T04:16:24.370Z,2.10
2022-10-17T04:19:00.663Z,1.73
2022-10-17T04:21:33.105Z,3.08
2022-10-17T04:24:06.366Z,1.95
2022-10-17T04:27:02.880Z,2.90
2022-10-17T04:29:33.373Z,2.65
2022-10-17T04:32:16.194Z,2.50
2022-10-17T04:34:51.014Z,3.28
2022-10-17T04:37:20.471Z,2.88
2022-10-17T04:39:50.537Z,2.70
2022-10-17T04:42:17.996Z,1.52
2022-10-17T04:44:45.744Z,1.33
2022-10-17T04:47:16.322Z,1.63
2022-10-17T04:49:44.239Z,1.90
2022-10-17T04:52:12.183Z,1.95
2022-10-17T04:54:49.109Z,2.20
2022-10-17T04:57:17.621Z,1.50
2022-10-17T04:59:54.622Z,1.70
2022-10-17T05:02:48.216Z,1.88
2022-10-17T05:05:16.168Z,2.80
2022-10-17T05:07:46.026Z,1.80
2022-10-17T05:10:18.312Z,1.77
2022-10-17T05:12:49.576Z,1.38
2022-10-17T05:15:19.130Z,1.58
2022-10-17T05:17:46.840Z,1.60
2022-10-17T05:20:14.414Z,1.70
2022-10-17T05:22:42.457Z,1.50
2022-10-17T05:25:11.875Z,1.70
2022-10-17T05:27:39.817Z,2.05
2022-10-17T05:30:07.971Z,2.40
2022-10-17T05:32:37.371Z,2.20
2022-10-17T05:35:05.647Z,2.20
2022-10-17T05:37:33.695Z,2.60
2022-10-17T05:40:03.410Z,3.13
2022-10-17T05:42:32.216Z,2.10
2022-10-17T05:45:00.038Z,1.95
2022-10-17T05:47:28.184Z,3.05
2022-10-17T05:49:55.817Z,2.50
2022-10-17T05:52:33.051Z,2.97
2022-10-17T05:55:09.180Z,4.45
2022-10-17T05:57:36.693Z,3.55
2022-10-17T06:00:08.109Z,3.10
2022-10-17T06:02:49.680Z,2.10
2022-10-17T06:05:19.588Z,2.65
2022-10-17T06:07:49.472Z,2.78
2022-10-17T06:10:18.827Z,3.13
2022-10-17T06:12:46.722Z,2.53
2022-10-17T06:15:15.638Z,1.88
2022-10-17T06:17:48.971Z,2.65
2022-10-17T06:20:16.505Z,4.22
2022-10-17T06:22:44.150Z,2.40
2022-10-17T06:25:17.490Z,3.40
2022-10-17T06:27:45.145Z,2.42
2022-10-17T06:30:13.171Z,2.83
2022-10-17T06:32:40.686Z,2.15
2022-10-17T06:35:08.759Z,2.28
2022-10-17T06:37:38.234Z,2.20
2022-10-17T06:40:10.793Z,2.33
2022-10-17T06:42:40.034Z,2.42
2022-10-17T06:45:39.636Z,2.50
2022-10-17T06:48:17.699Z,2.40
2022-10-17T06:51:06.711Z,2.78
2022-10-17T06:53:44.598Z,2.83
2022-10-17T06:56:44.115Z,2.22
2022-10-17T07:02:06.942Z,2.95
2022-10-17T07:04:34.424Z,2.58
2022-10-17T07:07:03.422Z,2.50
2022-10-17T07:09:33.320Z,2.80
2022-10-17T07:12:00.980Z,2.70
2022-10-17T07:14:32.337Z,2.30
2022-10-17T07:17:00.482Z,2.63
2022-10-17T07:19:29.991Z,2.88
2022-10-17T07:21:57.512Z,3.00
2022-10-17T07:24:25.930Z,3.13
2022-10-17T07:27:14.231Z,2.80
2022-10-17T07:29:41.668Z,2.58
2022-10-17T07:32:12.274Z,2.60
2022-10-17T07:34:40.891Z,2.35
2022-10-17T07:37:10.951Z,2.97
2022-10-17T07:39:41.389Z,2.30
2022-10-17T07:42:08.940Z,2.60
2022-10-17T07:44:36.564Z,2.70
2022-10-17T07:47:04.745Z,2.90
2022-10-17T07:49:32.329Z,2.38
2022-10-17T07:51:59.796Z,2.40
2022-10-17T07:54:27.193Z,2.03
2022-10-17T07:56:54.597Z,2.30
2022-10-17T07:59:22.135Z,1.80
2022-10-17T08:01:49.711Z,2.15
2022-10-17T08:04:17.838Z,2.20
2022-10-17T08:06:45.299Z,1.95
2022-10-17T08:09:12.827Z,2.10
2022-10-17T08:11:40.372Z,2.15
2022-10-17T08:14:07.934Z,2.10
2022-10-17T08:16:35.270Z,2.20
2022-10-17T08:19:03.019Z,1.75
2022-10-17T08:21:30.816Z,2.20
2022-10-17T08:23:58.433Z,1.90
2022-10-17T08:26:25.779Z,1.88
2022-10-17T08:28:53.318Z,2.28
2022-10-17T08:31:21.839Z,1.88
2022-10-17T08:33:50.760Z,1.73
2022-10-17T08:36:20.541Z,2.95
2022-10-17T08:38:51.776Z,2.00
2022-10-17T08:41:31.909Z,2.13
2022-10-17T08:44:11.511Z,1.88
2022-10-17T08:46:42.818Z,1.70
2022-10-17T08:49:33.305Z,1.60
2022-10-17T08:52:12.206Z,1.80
2022-10-17T08:54:46.414Z,1.83
2022-10-17T08:57:16.438Z,1.60
2022-10-17T08:59:46.328Z,1.60
2022-10-17T09:02:35.204Z,1.50
2022-10-17T09:05:14.696Z,1.50
2022-10-17T09:08:01.316Z,1.60
2022-10-17T09:11:08.054Z,1.23
2022-10-17T09:14:03.186Z,1.30
2022-10-17T09:16:55.024Z,1.02
2022-10-17T09:19:51.315Z,1.17
2022-10-17T09:22:25.412Z,1.30
2022-10-17T09:25:07.245Z,1.30
2022-10-17T09:27:40.829Z,1.50
2022-10-17T09:30:47.673Z,1.50
2022-10-17T09:33:35.222Z,1.20
2022-10-17T09:36:19.803Z,1.20
2022-10-17T09:38:54.241Z,1.27
2022-10-17T09:41:45.313Z,1.48
2022-10-17T09:44:16.937Z,1.40
2022-10-17T09:47:20.174Z,1.23
2022-10-17T09:49:48.671Z,1.23
2022-10-17T09:52:36.414Z,1.40
2022-10-17T09:55:12.802Z,1.55
2022-10-17T09:58:02.859Z,1.70
2022-10-17T10:00:36.953Z,1.42
2022-10-17T10:03:19.923Z,1.50
2022-10-17T10:06:06.053Z,1.40
2022-10-17T10:08:37.526Z,1.40
2022-10-17T10:11:13.359Z,1.30
2022-10-17T10:13:48.991Z,1.42
2022-10-17T10:16:19.769Z,1.45
2022-10-17T10:18:50.141Z,2.40
2022-10-17T10:21:24.399Z,2.90
2022-10-17T10:24:10.221Z,1.95
2022-10-17T10:26:45.294Z,1.90
2022-10-17T10:29:31.367Z,1.80
2022-10-17T10:32:07.722Z,1.75
2022-10-17T10:34:37.182Z,1.50
2022-10-17T10:37:22.061Z,1.60
2022-10-17T10:39:50.918Z,1.50
2022-10-17T10:42:25.985Z,2.75
2022-10-17T10:44:55.309Z,1.90
2022-10-17T10:47:24.734Z,1.60
2022-10-17T10:50:06.600Z,1.60
2022-10-17T10:52:48.120Z,1.38
2022-10-17T10:55:22.927Z,1.50
2022-10-17T10:57:53.891Z,1.48
2022-10-17T11:00:26.299Z,1.30
2022-10-17T11:03:50.811Z,1.35
2022-10-17T11:06:25.901Z,1.80
2022-10-17T11:09:26.220Z,3.72
2022-10-17T11:12:01.060Z,1.75
2022-10-17T11:14:28.465Z,1.63
2022-10-17T11:17:06.843Z,2.50
2022-10-17T11:19:59.587Z,1.80
2022-10-17T11:22:40.496Z,1.50
2022-10-17T11:25:23.113Z,1.67
2022-10-17T11:27:50.642Z,1.92
2022-10-17T11:30:18.376Z,1.85
2022-10-17T11:32:53.956Z,1.95
2022-10-17T11:35:25.195Z,1.90
2022-10-17T11:38:06.425Z,1.80
2022-10-17T11:40:41.098Z,2.10
2022-10-17T11:43:19.113Z,2.00
2022-10-17T11:45:53.003Z,1.98
2022-10-17T11:48:34.671Z,1.80
2022-10-17T11:54:23.905Z,1.90
2022-10-17T11:57:37.557Z,2.30
2022-10-17T12:00:32.432Z,2.13
2022-10-17T12:03:18.975Z,1.80
2022-10-17T12:06:11.517Z,2.30
2022-10-17T12:08:58.753Z,2.20
2022-10-17T12:11:35.132Z,2.25
2022-10-17T12:14:05.847Z,2.58
2022-10-17T12:16:39.653Z,2.70
2022-10-17T12:19:21.212Z,2.20
2022-10-17T12:21:56.375Z,3.85
2022-10-17T12:24:36.207Z,2.55
2022-10-17T12:27:23.768Z,2.30
2022-10-17T12:29:58.780Z,2.00
2022-10-17T12:32:30.316Z,1.98
2022-10-17T12:35:04.893Z,1.90
2022-10-17T12:37:58.633Z,1.80
2022-10-17T12:40:35.925Z,2.10
2022-10-17T12:43:29.481Z,2.70
2022-10-17T12:45:59.111Z,2.28
2022-10-17T12:48:38.453Z,2.38
2022-10-17T12:54:09.803Z,2.53
2022-10-17T12:56:41.546Z,2.75
2022-10-17T12:59:29.766Z,2.65
2022-10-17T13:02:00.543Z,3.03
2022-10-17T13:04:29.534Z,3.17
2022-10-17T13:07:00.958Z,2.70
2022-10-17T13:09:35.718Z,2.80
2022-10-17T13:12:10.884Z,2.83
2022-10-17T13:14:41.298Z,2.78
2022-10-17T13:17:29.066Z,3.33
2022-10-17T13:19:57.594Z,6.93
2022-10-17T13:22:29.744Z,2.67
2022-10-17T13:25:15.931Z,2.60
2022-10-17T13:27:43.953Z,2.28
2022-10-17T13:30:29.309Z,2.30
2022-10-17T13:33:01.395Z,2.67
2022-10-17T13:35:58.886Z,2.25
2022-10-17T13:38:30.181Z,2.25
2022-10-17T13:41:10.839Z,2.30
2022-10-17T13:43:45.545Z,2.60
2022-10-17T13:46:36.655Z,2.53
2022-10-17T13:49:56.517Z,2.42
2022-10-17T13:52:29.223Z,2.67
2022-10-17T13:55:08.751Z,3.03
2022-10-17T13:57:36.324Z,2.58
2022-10-17T14:00:11.401Z,3.33
2022-10-17T14:02:42.441Z,2.40
2022-10-17T14:05:23.487Z,2.40
2022-10-17T14:08:15.088Z,4.07
2022-10-17T14:13:36.221Z,2.65
2022-10-17T14:16:04.853Z,2.88
2022-10-17T14:18:36.576Z,2.97
2022-10-17T14:24:27.328Z,3.15
2022-10-17T14:26:59.171Z,2.80
2022-10-17T14:29:32.176Z,2.92
2022-10-17T14:32:06.324Z,2.50
2022-10-17T14:34:37.578Z,2.90
2022-10-17T14:37:13.521Z,2.88
2022-10-17T14:39:41.121Z,2.83
2022-10-17T14:42:18.965Z,4.95
2022-10-17T14:44:51.128Z,3.38
2022-10-17T14:47:42.251Z,7.45
2022-10-17T14:50:12.876Z,4.78
2022-10-17T14:52:43.398Z,5.00
2022-10-17T14:55:30.177Z,4.68
2022-10-17T14:57:58.090Z,3.58
2022-10-17T15:00:26.583Z,4.57
2022-10-17T15:02:55.690Z,4.10
2022-10-17T15:05:23.703Z,2.90
2022-10-17T15:07:51.499Z,2.67
2022-10-17T15:10:32.220Z,4.90
2022-10-17T15:13:26.236Z,3.88
2022-10-17T15:15:52.313Z,2.60
2022-10-17T15:18:19.999Z,3.85
2022-10-17T15:20:50.090Z,5.30
2022-10-17T15:23:23.739Z,4.97
2022-10-17T15:25:51.205Z,2.67
2022-10-17T15:28:18.604Z,2.78
2022-10-17T15:30:46.054Z,3.40
2022-10-17T15:33:14.206Z,2.85
2022-10-17T15:35:43.903Z,5.50
2022-10-17T15:38:18.364Z,2.75
2022-10-17T15:40:49.107Z,5.45
2022-10-17T15:43:19.831Z,9.75
2022-10-17T15:45:48.129Z,5.35
2022-10-17T15:48:30.941Z,7.93
2022-10-17T15:50:58.414Z,3.40
2022-10-17T15:53:25.899Z,3.42
2022-10-17T15:55:53.337Z,5.18
2022-10-17T15:58:21.062Z,3.50
2022-10-17T16:00:49.041Z,3.33
2022-10-17T16:03:16.622Z,5.85
2022-10-17T16:05:45.575Z,3.70
2022-10-17T16:08:13.029Z,3.08
2022-10-17T16:10:41.250Z,3.85
2022-10-17T16:13:17.647Z,3.13
2022-10-17T16:15:45.071Z,2.75
2022-10-17T16:18:13.416Z,3.38
2022-10-17T16:20:40.936Z,4.18
2022-10-17T16:23:08.756Z,2.97
2022-10-17T16:25:36.190Z,3.20
2022-10-17T16:28:04.509Z,3.33
2022-10-17T16:30:32.739Z,3.20
2022-10-17T16:33:00.319Z,3.60
2022-10-17T16:35:33.407Z,3.30
2022-10-17T16:38:05.813Z,3.35
2022-10-17T16:40:33.487Z,3.10
2022-10-17T16:43:00.898Z,3.58
2022-10-17T16:45:29.184Z,2.95
2022-10-17T16:47:56.652Z,3.10
2022-10-17T16:50:24.701Z,3.05
2022-10-17T16:52:52.172Z,2.95
2022-10-17T16:55:19.631Z,2.75
2022-10-17T16:57:49.392Z,2.97
2022-10-17T17:00:18.274Z,2.97
2022-10-17T17:02:48.165Z,3.28
2022-10-17T17:05:16.190Z,2.80
2022-10-17T17:07:43.629Z,2.80
2022-10-17T17:10:11.117Z,3.60
2022-10-17T17:12:39.848Z,2.85
2022-10-17T17:15:07.465Z,3.00
2022-10-17T17:17:49.731Z,2.88
2022-10-17T17:20:18.870Z,3.22
2022-10-17T17:22:46.255Z,3.08
2022-10-17T17:25:13.794Z,2.97
2022-10-17T17:27:41.429Z,2.72
2022-10-17T17:30:09.241Z,2.92
2022-10-17T17:32:36.676Z,10.40
2022-10-17T17:35:05.113Z,3.53
2022-10-17T17:37:32.841Z,3.40
2022-10-17T17:40:00.411Z,2.90
2022-10-17T17:42:27.983Z,3.00
2022-10-17T17:44:55.410Z,2.88
2022-10-17T17:47:22.875Z,2.65
2022-10-17T17:49:53.671Z,2.80
2022-10-17T17:52:21.104Z,3.10
2022-10-17T17:54:49.983Z,2.78
2022-10-17T17:57:17.642Z,3.30
2022-10-17T17:59:45.242Z,2.95
2022-10-17T18:02:12.817Z,2.70
2022-10-17T18:04:41.141Z,2.72
2022-10-17T18:07:08.517Z,3.08
2022-10-17T18:09:35.991Z,2.53
2022-10-17T18:12:03.492Z,2.65
2022-10-17T18:14:30.781Z,3.10
2022-10-17T18:16:58.263Z,2.47
2022-10-17T18:19:28.594Z,2.90
2022-10-17T18:21:56.308Z,2.80
2022-10-17T18:24:23.892Z,2.47
2022-10-17T18:26:54.229Z,2.60
2022-10-17T18:29:21.957Z,2.50
2022-10-17T18:31:49.433Z,2.75
2022-10-17T18:34:21.936Z,2.58
2022-10-17T18:36:49.339Z,2.72
2022-10-17T18:39:16.972Z,2.40
2022-10-17T18:41:44.588Z,2.25
2022-10-17T18:44:15.984Z,2.20
2022-10-17T18:46:43.532Z,2.50
2022-10-17T18:49:13.520Z,2.30
2022-10-17T18:51:42.136Z,2.40
2022-10-17T18:54:14.773Z,2.78
2022-10-17T18:56:42.462Z,2.67
2022-10-17T18:59:10.035Z,2.05
2022-10-17T19:01:38.880Z,2.20
2022-10-17T19:04:06.448Z,2.20
2022-10-17T19:06:33.796Z,2.25
2022-10-17T19:09:04.378Z,2.10
2022-10-17T19:11:33.699Z,2.42
2022-10-17T19:14:03.868Z,2.65
2022-10-17T19:16:34.613Z,2.30
2022-10-17T19:19:08.096Z,2.13
2022-10-17T19:21:35.663Z,2.20
2022-10-17T19:24:05.946Z,2.25
2022-10-17T19:26:35.850Z,2.40
2022-10-17T19:29:04.993Z,2.20
2022-10-17T19:31:33.752Z,1.92
2022-10-17T19:34:01.266Z,2.13
2022-10-17T19:36:33.377Z,2.28
2022-10-17T19:39:04.395Z,2.20
2022-10-17T19:41:32.489Z,1.98
2022-10-17T19:44:00.811Z,2.63
2022-10-17T19:46:29.865Z,2.20
2022-10-17T19:48:57.709Z,2.10
2022-10-17T19:51:25.678Z,2.10
2022-10-17T19:53:54.948Z,2.05
2022-10-17T19:56:24.545Z,1.85
2022-10-17T19:58:54.306Z,2.05
2022-10-17T20:01:29.397Z,2.10
2022-10-17T20:03:57.339Z,1.65
2022-10-17T20:06:25.186Z,2.00
2022-10-17T20:08:52.752Z,2.10
2022-10-17T20:11:23.030Z,2.00
2022-10-17T20:13:50.987Z,1.92
2022-10-17T20:16:24.171Z,1.95
2022-10-17T20:18:54.804Z,1.83
2022-10-17T20:21:25.518Z,1.70
2022-10-17T20:23:53.593Z,1.98
2022-10-17T20:26:33.561Z,1.80
2022-10-17T20:29:11.492Z,2.00
2022-10-17T20:34:07.955Z,1.60
2022-10-17T20:36:37.669Z,1.90
2022-10-17T20:39:06.403Z,1.60
2022-10-17T20:41:34.708Z,1.30
2022-10-17T20:44:02.242Z,1.70
2022-10-17T20:46:36.787Z,1.30
2022-10-17T20:49:07.153Z,2.17
2022-10-17T20:51:35.422Z,1.80
2022-10-17T20:54:03.451Z,1.70
2022-10-17T20:56:32.787Z,1.58
2022-10-17T20:59:02.690Z,1.58
2022-10-17T21:01:32.093Z,1.48
2022-10-17T21:04:10.492Z,1.77
2022-10-17T21:06:43.590Z,1.58
2022-10-17T21:09:11.041Z,1.75
2022-10-17T21:11:39.533Z,1.55
2022-10-17T21:14:08.266Z,1.75
2022-10-17T21:16:37.187Z,1.80
2022-10-17T21:19:05.765Z,1.80
2022-10-17T21:21:38.327Z,1.92
2022-10-17T21:24:09.256Z,1.45
2022-10-17T21:26:37.891Z,2.13
2022-10-17T21:29:06.460Z,1.80
2022-10-17T21:31:36.953Z,1.70
2022-10-17T21:34:13.198Z,1.63
2022-10-17T21:36:40.846Z,1.65
2022-10-17T21:41:41.371Z,1.90
2022-10-17T21:44:14.704Z,1.38
2022-10-17T21:46:42.605Z,1.50
2022-10-17T21:49:12.442Z,1.67
2022-10-17T21:51:40.435Z,1.50
2022-10-17T21:54:08.293Z,1.58
2022-10-17T21:56:36.601Z,2.10
2022-10-17T21:59:05.190Z,1.60
2022-10-17T22:01:38.849Z,1.60
2022-10-17T22:04:10.509Z,1.50
2022-10-17T22:06:40.902Z,1.95
2022-10-17T22:09:13.223Z,1.70
2022-10-17T22:11:41.725Z,1.60
2022-10-17T22:14:13.881Z,1.83
2022-10-17T22:16:42.329Z,1.35
2022-10-17T22:19:12.728Z,1.60
2022-10-17T22:21:40.397Z,1.80
2022-10-17T22:24:10.821Z,1.45
2022-10-17T22:26:38.919Z,1.80
2022-10-17T22:29:08.078Z,1.48
2022-10-17T22:31:36.440Z,1.70
2022-10-17T22:34:05.596Z,1.60
2022-10-17T22:36:34.309Z,2.00
2022-10-17T22:39:02.238Z,1.83
2022-10-17T22:41:29.881Z,1.80
2022-10-17T22:43:57.666Z,1.70
2022-10-17T22:46:25.624Z,1.73
2022-10-17T22:48:53.058Z,2.03
2022-10-17T22:51:20.625Z,1.77
2022-10-17T22:53:48.259Z,1.90
2022-10-17T22:56:18.793Z,2.05
2022-10-17T22:58:46.498Z,2.08
2022-10-17T23:01:17.420Z,1.80
2022-10-17T23:03:45.280Z,1.77
2022-10-17T23:06:13.291Z,2.10
2022-10-17T23:08:41.423Z,1.77
2022-10-17T23:11:09.643Z,2.08
2022-10-17T23:13:37.624Z,1.85
2022-10-17T23:16:05.373Z,2.33
2022-10-17T23:18:33.405Z,1.70
2022-10-17T23:21:00.876Z,1.80
2022-10-17T23:23:28.396Z,1.77
2022-10-17T23:25:56.651Z,2.00
2022-10-17T23:28:24.054Z,2.10
2022-10-17T23:30:51.483Z,2.08
2022-10-17T23:33:18.849Z,2.00
2022-10-17T23:35:46.336Z,1.98
2022-10-17T23:38:13.650Z,2.28
2022-10-17T23:40:41.047Z,2.20
2022-10-17T23:43:08.435Z,1.85
2022-10-17T23:45:37.202Z,2.10
2022-10-17T23:48:06.035Z,2.03
2022-10-17T23:50:33.474Z,2.08
2022-10-17T23:53:00.958Z,2.20
2022-10-17T23:55:28.463Z,2.15
2022-10-17T23:57:55.869Z,2.05
